Main page
METAR-TAF:

METAR-TAF

Airports :

Chuuk International Airport

Weno, Micronesia

latitude: 07-28N, longitude: 151-51E, elevation: 3 m

Current weather observation

The report was made 1 hour and 5 minutes ago, at 18:52 UTC
Wind 3 kt from variable directions
Temperature 26°C
Humidity 84%
Pressure 1010 hPa
Visibility: 24.1 km
Few clouds at a height of 1400 ft
Scattered clouds at a height of 29000 ft

METAR: PTKK 231852Z VRB03KT 15SM FEW014 SCT290 26/23 A2982 RMK SLP100 T02570233

Time: 05:57 (19:57 UTC)

Forecast

The report was made 2 hours and 30 minutes ago, at 17:27 UTC
Forecast valid from 23 at 18 UTC to 24 at 18 UTC
Wind 5 kt from variable directions
Visibility: 10 km
Few clouds at a height of 1800 ft
Scattered clouds at a height of 5000 ft

TAF: PTKK 231727Z 2318/2418 VRB05KT P6SM FEW018 SCT050

Weather observations and forecasts of more than 4000 airports (METAR and TAF reports).

The available stations are represented by yellow and red dots on the map.

Hover mouse over dot to see the name of the station.

Then click to see weather observations and forecasts.

To change the map : click on the green buttons with a black cross to zoom in, on the green button with a dash to zoom out, or on the green arrows for adjacent maps.


METAR-TAF: